sensor_id;sensor_type;location;lat;lon;timestamp;P1;durP1;ratioP1;P2;durP2;ratioP2
27201;SDS011;14717;46.924;15.474;2023-04-24T00:02:18;6.40;;;3.60;;
27201;SDS011;14717;46.924;15.474;2023-04-24T00:04:43;7.30;;;3.60;;
27201;SDS011;14717;46.924;15.474;2023-04-24T00:07:12;8.30;;;3.55;;
27201;SDS011;14717;46.924;15.474;2023-04-24T00:09:38;5.20;;;3.35;;
27201;SDS011;14717;46.924;15.474;2023-04-24T00:12:03;7.32;;;3.50;;
27201;SDS011;14717;46.924;15.474;2023-04-24T00:14:30;5.78;;;3.42;;
27201;SDS011;14717;46.924;15.474;2023-04-24T00:16:55;5.15;;;3.05;;
27201;SDS011;14717;46.924;15.474;2023-04-24T00:19:21;6.13;;;3.42;;
27201;SDS011;14717;46.924;15.474;2023-04-24T00:21:46;6.55;;;3.38;;
27201;SDS011;14717;46.924;15.474;2023-04-24T00:24:14;6.97;;;3.38;;
27201;SDS011;14717;46.924;15.474;2023-04-24T00:29:06;6.37;;;3.20;;
27201;SDS011;14717;46.924;15.474;2023-04-24T00:31:31;8.48;;;3.40;;
27201;SDS011;14717;46.924;15.474;2023-04-24T00:33:59;5.78;;;3.42;;
27201;SDS011;14717;46.924;15.474;2023-04-24T00:36:25;4.38;;;3.03;;
27201;SDS011;14717;46.924;15.474;2023-04-24T00:38:52;6.57;;;3.47;;
27201;SDS011;14717;46.924;15.474;2023-04-24T00:41:18;6.70;;;3.35;;
27201;SDS011;14717;46.924;15.474;2023-04-24T00:43:43;6.18;;;3.45;;
27201;SDS011;14717;46.924;15.474;2023-04-24T00:46:09;8.45;;;3.30;;
27201;SDS011;14717;46.924;15.474;2023-04-24T00:48:36;4.90;;;3.10;;
27201;SDS011;14717;46.924;15.474;2023-04-24T00:51:03;4.97;;;3.05;;
27201;SDS011;14717;46.924;15.474;2023-04-24T00:53:29;6.20;;;3.55;;
27201;SDS011;14717;46.924;15.474;2023-04-24T00:55:54;6.80;;;3.58;;
27201;SDS011;14717;46.924;15.474;2023-04-24T00:58:20;6.82;;;3.47;;
27201;SDS011;14717;46.924;15.474;2023-04-24T01:00:46;5.25;;;3.35;;
27201;SDS011;14717;46.924;15.474;2023-04-24T01:03:13;6.60;;;3.70;;
27201;SDS011;14717;46.924;15.474;2023-04-24T01:05:39;7.47;;;3.50;;
27201;SDS011;14717;46.924;15.474;2023-04-24T01:08:04;5.97;;;3.15;;
27201;SDS011;14717;46.924;15.474;2023-04-24T01:10:30;6.57;;;3.47;;
27201;SDS011;14717;46.924;15.474;2023-04-24T01:12:58;5.55;;;3.20;;
27201;SDS011;14717;46.924;15.474;2023-04-24T01:15:23;6.45;;;3.30;;
27201;SDS011;14717;46.924;15.474;2023-04-24T01:17:49;6.00;;;3.40;;
27201;SDS011;14717;46.924;15.474;2023-04-24T01:20:15;7.13;;;3.30;;
27201;SDS011;14717;46.924;15.474;2023-04-24T01:22:41;6.75;;;3.53;;
27201;SDS011;14717;46.924;15.474;2023-04-24T01:25:07;7.00;;;3.50;;
27201;SDS011;14717;46.924;15.474;2023-04-24T01:27:33;6.93;;;3.55;;
27201;SDS011;14717;46.924;15.474;2023-04-24T01:29:58;6.18;;;3.60;;
27201;SDS011;14717;46.924;15.474;2023-04-24T01:32:24;6.63;;;3.55;;
27201;SDS011;14717;46.924;15.474;2023-04-24T01:37:16;6.68;;;3.83;;
27201;SDS011;14717;46.924;15.474;2023-04-24T01:39:42;6.85;;;3.70;;
27201;SDS011;14717;46.924;15.474;2023-04-24T01:42:08;6.22;;;3.55;;
27201;SDS011;14717;46.924;15.474;2023-04-24T01:44:34;7.25;;;3.60;;
27201;SDS011;14717;46.924;15.474;2023-04-24T01:47:00;6.88;;;3.58;;
27201;SDS011;14717;46.924;15.474;2023-04-24T01:51:52;8.00;;;3.50;;
27201;SDS011;14717;46.924;15.474;2023-04-24T01:54:17;8.73;;;3.83;;
27201;SDS011;14717;46.924;15.474;2023-04-24T01:56:43;6.47;;;3.33;;
27201;SDS011;14717;46.924;15.474;2023-04-24T01:59:11;5.40;;;3.63;;
27201;SDS011;14717;46.924;15.474;2023-04-24T02:01:37;6.20;;;3.75;;
27201;SDS011;14717;46.924;15.474;2023-04-24T02:04:04;6.82;;;3.30;;
27201;SDS011;14717;46.924;15.474;2023-04-24T02:06:30;6.20;;;3.70;;
27201;SDS011;14717;46.924;15.474;2023-04-24T02:08:57;6.97;;;3.42;;
27201;SDS011;14717;46.924;15.474;2023-04-24T02:11:23;6.00;;;3.45;;
27201;SDS011;14717;46.924;15.474;2023-04-24T02:13:48;7.63;;;4.10;;
27201;SDS011;14717;46.924;15.474;2023-04-24T02:16:15;5.97;;;3.40;;
27201;SDS011;14717;46.924;15.474;2023-04-24T02:18:40;9.50;;;3.53;;
27201;SDS011;14717;46.924;15.474;2023-04-24T02:21:06;6.97;;;3.53;;
27201;SDS011;14717;46.924;15.474;2023-04-24T02:23:31;7.97;;;3.60;;
27201;SDS011;14717;46.924;15.474;2023-04-24T02:25:56;8.07;;;3.92;;
27201;SDS011;14717;46.924;15.474;2023-04-24T02:28:22;5.30;;;3.55;;
27201;SDS011;14717;46.924;15.474;2023-04-24T02:30:47;6.20;;;3.53;;
27201;SDS011;14717;46.924;15.474;2023-04-24T02:33:12;7.28;;;4.03;;
27201;SDS011;14717;46.924;15.474;2023-04-24T02:35:38;5.65;;;3.50;;
27201;SDS011;14717;46.924;15.474;2023-04-24T02:38:03;5.95;;;4.13;;
27201;SDS011;14717;46.924;15.474;2023-04-24T02:40:29;6.43;;;3.63;;
27201;SDS011;14717;46.924;15.474;2023-04-24T02:42:55;7.47;;;3.80;;
27201;SDS011;14717;46.924;15.474;2023-04-24T02:45:20;6.78;;;3.50;;
27201;SDS011;14717;46.924;15.474;2023-04-24T02:47:45;8.45;;;3.50;;
27201;SDS011;14717;46.924;15.474;2023-04-24T02:50:11;6.43;;;3.80;;
27201;SDS011;14717;46.924;15.474;2023-04-24T02:52:36;5.90;;;3.45;;
27201;SDS011;14717;46.924;15.474;2023-04-24T02:55:02;8.77;;;3.67;;
27201;SDS011;14717;46.924;15.474;2023-04-24T02:57:27;6.25;;;3.60;;
27201;SDS011;14717;46.924;15.474;2023-04-24T02:59:52;6.32;;;3.80;;
27201;SDS011;14717;46.924;15.474;2023-04-24T03:02:18;8.23;;;4.10;;
27201;SDS011;14717;46.924;15.474;2023-04-24T03:04:43;6.47;;;3.53;;
27201;SDS011;14717;46.924;15.474;2023-04-24T03:07:09;6.18;;;3.88;;
27201;SDS011;14717;46.924;15.474;2023-04-24T03:09:34;6.70;;;3.95;;
27201;SDS011;14717;46.924;15.474;2023-04-24T03:11:59;6.53;;;3.65;;
27201;SDS011;14717;46.924;15.474;2023-04-24T03:14:25;6.60;;;3.95;;
27201;SDS011;14717;46.924;15.474;2023-04-24T03:16:50;7.28;;;4.15;;
27201;SDS011;14717;46.924;15.474;2023-04-24T03:19:16;8.65;;;4.00;;
27201;SDS011;14717;46.924;15.474;2023-04-24T03:21:41;6.40;;;3.92;;
27201;SDS011;14717;46.924;15.474;2023-04-24T03:24:10;5.95;;;3.95;;
27201;SDS011;14717;46.924;15.474;2023-04-24T03:26:35;5.88;;;3.75;;
27201;SDS011;14717;46.924;15.474;2023-04-24T03:29:01;6.93;;;4.10;;
27201;SDS011;14717;46.924;15.474;2023-04-24T03:31:26;6.63;;;4.13;;
27201;SDS011;14717;46.924;15.474;2023-04-24T03:33:51;7.93;;;4.22;;
27201;SDS011;14717;46.924;15.474;2023-04-24T03:36:17;7.55;;;4.00;;
27201;SDS011;14717;46.924;15.474;2023-04-24T03:38:45;7.22;;;3.63;;
27201;SDS011;14717;46.924;15.474;2023-04-24T03:41:10;6.88;;;3.80;;
27201;SDS011;14717;46.924;15.474;2023-04-24T03:43:36;7.38;;;4.00;;
27201;SDS011;14717;46.924;15.474;2023-04-24T03:46:02;7.75;;;4.20;;
27201;SDS011;14717;46.924;15.474;2023-04-24T03:48:27;9.13;;;4.03;;
27201;SDS011;14717;46.924;15.474;2023-04-24T03:50:53;8.55;;;4.05;;
27201;SDS011;14717;46.924;15.474;2023-04-24T03:53:18;6.15;;;3.70;;
27201;SDS011;14717;46.924;15.474;2023-04-24T03:55:44;7.65;;;3.78;;
27201;SDS011;14717;46.924;15.474;2023-04-24T03:58:10;6.78;;;3.45;;
27201;SDS011;14717;46.924;15.474;2023-04-24T04:00:36;6.70;;;4.10;;
27201;SDS011;14717;46.924;15.474;2023-04-24T04:03:02;7.10;;;4.20;;
27201;SDS011;14717;46.924;15.474;2023-04-24T04:05:28;9.10;;;4.60;;
27201;SDS011;14717;46.924;15.474;2023-04-24T04:07:54;7.18;;;4.43;;
27201;SDS011;14717;46.924;15.474;2023-04-24T04:10:19;7.07;;;4.25;;
27201;SDS011;14717;46.924;15.474;2023-04-24T04:12:45;7.13;;;4.30;;
27201;SDS011;14717;46.924;15.474;2023-04-24T04:15:10;9.35;;;4.00;;
27201;SDS011;14717;46.924;15.474;2023-04-24T04:17:35;7.28;;;4.47;;
27201;SDS011;14717;46.924;15.474;2023-04-24T04:20:03;7.45;;;4.40;;
27201;SDS011;14717;46.924;15.474;2023-04-24T04:22:33;8.70;;;4.47;;
27201;SDS011;14717;46.924;15.474;2023-04-24T04:24:59;8.05;;;4.53;;
27201;SDS011;14717;46.924;15.474;2023-04-24T04:27:25;7.65;;;4.25;;
27201;SDS011;14717;46.924;15.474;2023-04-24T04:29:51;7.93;;;4.10;;
27201;SDS011;14717;46.924;15.474;2023-04-24T04:32:17;7.72;;;4.05;;
27201;SDS011;14717;46.924;15.474;2023-04-24T04:34:42;7.53;;;4.10;;
27201;SDS011;14717;46.924;15.474;2023-04-24T04:37:10;7.18;;;4.43;;
27201;SDS011;14717;46.924;15.474;2023-04-24T04:39:36;6.95;;;4.15;;
27201;SDS011;14717;46.924;15.474;2023-04-24T04:42:01;7.38;;;3.78;;
27201;SDS011;14717;46.924;15.474;2023-04-24T04:44:27;9.68;;;4.65;;
27201;SDS011;14717;46.924;15.474;2023-04-24T04:46:52;7.82;;;4.50;;
27201;SDS011;14717;46.924;15.474;2023-04-24T04:49:21;9.20;;;4.35;;
27201;SDS011;14717;46.924;15.474;2023-04-24T04:51:48;10.70;;;4.25;;
27201;SDS011;14717;46.924;15.474;2023-04-24T04:54:15;8.38;;;4.18;;
27201;SDS011;14717;46.924;15.474;2023-04-24T04:56:41;8.52;;;4.45;;
27201;SDS011;14717;46.924;15.474;2023-04-24T04:59:06;9.00;;;4.57;;
27201;SDS011;14717;46.924;15.474;2023-04-24T05:01:32;8.15;;;4.63;;
27201;SDS011;14717;46.924;15.474;2023-04-24T05:03:57;7.75;;;4.43;;
27201;SDS011;14717;46.924;15.474;2023-04-24T05:06:22;7.28;;;4.60;;
27201;SDS011;14717;46.924;15.474;2023-04-24T05:08:48;7.05;;;4.22;;
27201;SDS011;14717;46.924;15.474;2023-04-24T05:11:13;7.75;;;4.50;;
27201;SDS011;14717;46.924;15.474;2023-04-24T05:13:39;7.50;;;4.45;;
27201;SDS011;14717;46.924;15.474;2023-04-24T05:16:05;7.55;;;4.32;;
27201;SDS011;14717;46.924;15.474;2023-04-24T05:18:30;7.90;;;4.65;;
27201;SDS011;14717;46.924;15.474;2023-04-24T05:20:56;7.03;;;4.00;;
27201;SDS011;14717;46.924;15.474;2023-04-24T05:23:21;9.10;;;4.40;;
27201;SDS011;14717;46.924;15.474;2023-04-24T05:25:46;8.68;;;4.68;;
27201;SDS011;14717;46.924;15.474;2023-04-24T05:28:12;8.88;;;4.18;;
27201;SDS011;14717;46.924;15.474;2023-04-24T05:30:37;7.20;;;4.18;;
27201;SDS011;14717;46.924;15.474;2023-04-24T05:33:03;11.55;;;4.68;;
27201;SDS011;14717;46.924;15.474;2023-04-24T05:35:28;7.85;;;4.32;;
27201;SDS011;14717;46.924;15.474;2023-04-24T05:37:54;10.05;;;4.70;;
27201;SDS011;14717;46.924;15.474;2023-04-24T05:40:19;9.60;;;5.03;;
27201;SDS011;14717;46.924;15.474;2023-04-24T05:42:45;7.32;;;4.38;;
27201;SDS011;14717;46.924;15.474;2023-04-24T05:45:10;6.75;;;4.15;;
27201;SDS011;14717;46.924;15.474;2023-04-24T05:47:41;13.85;;;4.63;;
27201;SDS011;14717;46.924;15.474;2023-04-24T05:50:06;10.90;;;5.05;;
27201;SDS011;14717;46.924;15.474;2023-04-24T05:52:32;8.60;;;4.63;;
27201;SDS011;14717;46.924;15.474;2023-04-24T05:54:57;10.68;;;5.18;;
27201;SDS011;14717;46.924;15.474;2023-04-24T05:57:23;9.35;;;4.88;;
27201;SDS011;14717;46.924;15.474;2023-04-24T05:59:48;8.90;;;4.72;;
27201;SDS011;14717;46.924;15.474;2023-04-24T06:02:14;11.20;;;4.90;;
27201;SDS011;14717;46.924;15.474;2023-04-24T06:04:39;8.45;;;4.93;;
27201;SDS011;14717;46.924;15.474;2023-04-24T06:07:05;8.98;;;4.53;;
27201;SDS011;14717;46.924;15.474;2023-04-24T06:09:31;9.80;;;4.93;;
27201;SDS011;14717;46.924;15.474;2023-04-24T06:11:56;11.40;;;4.88;;
27201;SDS011;14717;46.924;15.474;2023-04-24T06:14:22;10.77;;;4.70;;
27201;SDS011;14717;46.924;15.474;2023-04-24T06:16:47;8.65;;;4.43;;
27201;SDS011;14717;46.924;15.474;2023-04-24T06:19:13;7.60;;;3.90;;
27201;SDS011;14717;46.924;15.474;2023-04-24T06:21:38;7.60;;;4.25;;
27201;SDS011;14717;46.924;15.474;2023-04-24T06:24:03;7.78;;;4.55;;
27201;SDS011;14717;46.924;15.474;2023-04-24T06:26:29;8.43;;;4.75;;
27201;SDS011;14717;46.924;15.474;2023-04-24T06:28:55;7.95;;;4.22;;
27201;SDS011;14717;46.924;15.474;2023-04-24T06:31:20;11.48;;;4.72;;
27201;SDS011;14717;46.924;15.474;2023-04-24T06:33:46;7.07;;;4.40;;
27201;SDS011;14717;46.924;15.474;2023-04-24T06:36:12;10.23;;;4.82;;
27201;SDS011;14717;46.924;15.474;2023-04-24T06:38:37;7.32;;;4.70;;
27201;SDS011;14717;46.924;15.474;2023-04-24T06:41:03;9.50;;;4.40;;
27201;SDS011;14717;46.924;15.474;2023-04-24T06:43:30;8.57;;;4.35;;
27201;SDS011;14717;46.924;15.474;2023-04-24T06:45:56;7.97;;;4.57;;
27201;SDS011;14717;46.924;15.474;2023-04-24T06:48:23;10.15;;;4.50;;
27201;SDS011;14717;46.924;15.474;2023-04-24T06:50:49;9.38;;;4.80;;
27201;SDS011;14717;46.924;15.474;2023-04-24T06:53:14;8.80;;;4.45;;
27201;SDS011;14717;46.924;15.474;2023-04-24T06:55:40;9.35;;;4.55;;
27201;SDS011;14717;46.924;15.474;2023-04-24T06:58:05;7.60;;;4.50;;
27201;SDS011;14717;46.924;15.474;2023-04-24T07:00:31;8.18;;;4.05;;
27201;SDS011;14717;46.924;15.474;2023-04-24T07:02:56;7.32;;;4.50;;
27201;SDS011;14717;46.924;15.474;2023-04-24T07:05:22;9.38;;;4.57;;
27201;SDS011;14717;46.924;15.474;2023-04-24T07:07:48;9.75;;;4.65;;
27201;SDS011;14717;46.924;15.474;2023-04-24T07:10:14;14.30;;;5.10;;
27201;SDS011;14717;46.924;15.474;2023-04-24T07:12:40;7.47;;;4.63;;
27201;SDS011;14717;46.924;15.474;2023-04-24T07:15:05;7.28;;;4.88;;
27201;SDS011;14717;46.924;15.474;2023-04-24T07:17:34;14.88;;;4.82;;
27201;SDS011;14717;46.924;15.474;2023-04-24T07:19:59;11.07;;;4.82;;
27201;SDS011;14717;46.924;15.474;2023-04-24T07:22:25;10.95;;;5.25;;
27201;SDS011;14717;46.924;15.474;2023-04-24T07:24:50;9.05;;;4.88;;
27201;SDS011;14717;46.924;15.474;2023-04-24T07:27:16;9.05;;;5.10;;
27201;SDS011;14717;46.924;15.474;2023-04-24T07:29:41;10.73;;;5.72;;
27201;SDS011;14717;46.924;15.474;2023-04-24T07:32:07;11.95;;;5.25;;
27201;SDS011;14717;46.924;15.474;2023-04-24T07:34:33;9.88;;;5.70;;
27201;SDS011;14717;46.924;15.474;2023-04-24T07:36:58;10.30;;;5.95;;
27201;SDS011;14717;46.924;15.474;2023-04-24T07:39:24;9.25;;;5.10;;
27201;SDS011;14717;46.924;15.474;2023-04-24T07:41:49;8.27;;;5.53;;
27201;SDS011;14717;46.924;15.474;2023-04-24T07:44:15;11.60;;;5.35;;
27201;SDS011;14717;46.924;15.474;2023-04-24T07:46:40;8.65;;;5.30;;
27201;SDS011;14717;46.924;15.474;2023-04-24T07:49:06;8.98;;;5.55;;
27201;SDS011;14717;46.924;15.474;2023-04-24T07:51:31;10.30;;;5.93;;
27201;SDS011;14717;46.924;15.474;2023-04-24T07:53:59;11.57;;;6.65;;
27201;SDS011;14717;46.924;15.474;2023-04-24T07:56:25;13.48;;;6.47;;
27201;SDS011;14717;46.924;15.474;2023-04-24T07:58:50;10.13;;;5.60;;
27201;SDS011;14717;46.924;15.474;2023-04-24T08:01:16;10.00;;;6.63;;
27201;SDS011;14717;46.924;15.474;2023-04-24T08:03:41;9.95;;;5.57;;
27201;SDS011;14717;46.924;15.474;2023-04-24T08:06:06;10.85;;;5.68;;
27201;SDS011;14717;46.924;15.474;2023-04-24T08:08:32;12.60;;;6.25;;
27201;SDS011;14717;46.924;15.474;2023-04-24T08:10:57;11.10;;;5.47;;
27201;SDS011;14717;46.924;15.474;2023-04-24T08:13:23;10.70;;;6.13;;
27201;SDS011;14717;46.924;15.474;2023-04-24T08:15:48;10.30;;;5.78;;
27201;SDS011;14717;46.924;15.474;2023-04-24T08:18:14;12.05;;;6.18;;
27201;SDS011;14717;46.924;15.474;2023-04-24T08:20:40;11.52;;;6.18;;
27201;SDS011;14717;46.924;15.474;2023-04-24T08:23:06;9.00;;;5.75;;
27201;SDS011;14717;46.924;15.474;2023-04-24T08:25:31;11.60;;;5.85;;
27201;SDS011;14717;46.924;15.474;2023-04-24T08:27:57;11.02;;;6.20;;
27201;SDS011;14717;46.924;15.474;2023-04-24T08:30:22;9.85;;;5.97;;
27201;SDS011;14717;46.924;15.474;2023-04-24T08:32:48;12.30;;;5.47;;
27201;SDS011;14717;46.924;15.474;2023-04-24T08:35:13;11.25;;;5.45;;
27201;SDS011;14717;46.924;15.474;2023-04-24T08:37:39;12.63;;;5.97;;
27201;SDS011;14717;46.924;15.474;2023-04-24T08:40:06;10.25;;;6.20;;
27201;SDS011;14717;46.924;15.474;2023-04-24T08:42:37;11.20;;;6.20;;
27201;SDS011;14717;46.924;15.474;2023-04-24T08:45:04;12.32;;;6.38;;
27201;SDS011;14717;46.924;15.474;2023-04-24T08:47:31;11.65;;;5.80;;
27201;SDS011;14717;46.924;15.474;2023-04-24T08:49:57;9.68;;;5.55;;
27201;SDS011;14717;46.924;15.474;2023-04-24T08:52:25;9.27;;;5.30;;
27201;SDS011;14717;46.924;15.474;2023-04-24T08:57:17;10.75;;;5.93;;
27201;SDS011;14717;46.924;15.474;2023-04-24T09:02:09;10.02;;;5.28;;
27201;SDS011;14717;46.924;15.474;2023-04-24T09:07:01;12.48;;;5.57;;
27201;SDS011;14717;46.924;15.474;2023-04-24T09:09:28;13.68;;;5.07;;
27201;SDS011;14717;46.924;15.474;2023-04-24T09:11:56;10.55;;;4.85;;
27201;SDS011;14717;46.924;15.474;2023-04-24T09:14:22;9.05;;;4.65;;
27201;SDS011;14717;46.924;15.474;2023-04-24T09:16:48;8.32;;;4.57;;
27201;SDS011;14717;46.924;15.474;2023-04-24T09:19:14;7.60;;;4.78;;
27201;SDS011;14717;46.924;15.474;2023-04-24T09:21:40;9.32;;;4.47;;
27201;SDS011;14717;46.924;15.474;2023-04-24T09:24:07;9.38;;;4.75;;
27201;SDS011;14717;46.924;15.474;2023-04-24T09:26:42;8.05;;;4.20;;
27201;SDS011;14717;46.924;15.474;2023-04-24T09:29:08;7.47;;;3.75;;
27201;SDS011;14717;46.924;15.474;2023-04-24T09:31:40;7.60;;;4.05;;
27201;SDS011;14717;46.924;15.474;2023-04-24T09:34:06;8.30;;;3.97;;
27201;SDS011;14717;46.924;15.474;2023-04-24T09:36:34;6.43;;;4.00;;
27201;SDS011;14717;46.924;15.474;2023-04-24T09:44:22;5.93;;;3.55;;
27201;SDS011;14717;46.924;15.474;2023-04-24T09:46:50;6.75;;;3.65;;
27201;SDS011;14717;46.924;15.474;2023-04-24T09:49:21;6.75;;;3.90;;
27201;SDS011;14717;46.924;15.474;2023-04-24T09:51:48;5.80;;;3.40;;
27201;SDS011;14717;46.924;15.474;2023-04-24T09:54:14;7.25;;;3.67;;
27201;SDS011;14717;46.924;15.474;2023-04-24T09:56:49;5.35;;;3.10;;
27201;SDS011;14717;46.924;15.474;2023-04-24T09:59:16;7.32;;;3.55;;
27201;SDS011;14717;46.924;15.474;2023-04-24T10:01:43;5.57;;;2.75;;
27201;SDS011;14717;46.924;15.474;2023-04-24T10:04:20;4.85;;;2.63;;
27201;SDS011;14717;46.924;15.474;2023-04-24T10:06:48;5.88;;;3.20;;
27201;SDS011;14717;46.924;15.474;2023-04-24T10:09:18;4.88;;;2.00;;
27201;SDS011;14717;46.924;15.474;2023-04-24T10:11:47;7.13;;;2.42;;
27201;SDS011;14717;46.924;15.474;2023-04-24T10:14:17;3.85;;;1.77;;
27201;SDS011;14717;46.924;15.474;2023-04-24T10:16:45;4.15;;;1.80;;
27201;SDS011;14717;46.924;15.474;2023-04-24T10:19:14;2.65;;;1.58;;
27201;SDS011;14717;46.924;15.474;2023-04-24T10:21:40;3.90;;;1.67;;
27201;SDS011;14717;46.924;15.474;2023-04-24T10:24:11;1.95;;;1.23;;
27201;SDS011;14717;46.924;15.474;2023-04-24T10:26:38;2.85;;;1.40;;
27201;SDS011;14717;46.924;15.474;2023-04-24T10:29:04;2.78;;;1.10;;
27201;SDS011;14717;46.924;15.474;2023-04-24T10:31:34;2.13;;;1.30;;
27201;SDS011;14717;46.924;15.474;2023-04-24T10:34:01;2.53;;;1.10;;
27201;SDS011;14717;46.924;15.474;2023-04-24T10:36:29;3.58;;;1.67;;
27201;SDS011;14717;46.924;15.474;2023-04-24T10:38:57;3.17;;;1.40;;
27201;SDS011;14717;46.924;15.474;2023-04-24T10:41:25;2.67;;;1.42;;
27201;SDS011;14717;46.924;15.474;2023-04-24T10:44:07;2.95;;;1.20;;
27201;SDS011;14717;46.924;15.474;2023-04-24T10:46:34;5.65;;;1.63;;
27201;SDS011;14717;46.924;15.474;2023-04-24T10:49:03;3.10;;;1.27;;
27201;SDS011;14717;46.924;15.474;2023-04-24T10:56:53;2.30;;;1.00;;
27201;SDS011;14717;46.924;15.474;2023-04-24T10:59:44;1.67;;;1.00;;
27201;SDS011;14717;46.924;15.474;2023-04-24T11:02:10;1.85;;;1.08;;
27201;SDS011;14717;46.924;15.474;2023-04-24T11:04:39;2.08;;;1.13;;
27201;SDS011;14717;46.924;15.474;2023-04-24T11:07:04;2.25;;;1.33;;
27201;SDS011;14717;46.924;15.474;2023-04-24T11:09:30;2.60;;;1.17;;
27201;SDS011;14717;46.924;15.474;2023-04-24T11:12:03;2.05;;;1.00;;
27201;SDS011;14717;46.924;15.474;2023-04-24T11:14:54;1.88;;;1.20;;
27201;SDS011;14717;46.924;15.474;2023-04-24T11:20:05;1.25;;;0.80;;
27201;SDS011;14717;46.924;15.474;2023-04-24T11:22:35;1.73;;;0.90;;
27201;SDS011;14717;46.924;15.474;2023-04-24T11:25:03;4.38;;;2.10;;
27201;SDS011;14717;46.924;15.474;2023-04-24T11:27:50;2.75;;;0.70;;
27201;SDS011;14717;46.924;15.474;2023-04-24T11:30:18;1.58;;;0.80;;
27201;SDS011;14717;46.924;15.474;2023-04-24T11:32:49;1.50;;;0.70;;
27201;SDS011;14717;46.924;15.474;2023-04-24T11:37:46;1.17;;;0.75;;
27201;SDS011;14717;46.924;15.474;2023-04-24T11:40:16;1.77;;;0.90;;
27201;SDS011;14717;46.924;15.474;2023-04-24T11:42:44;1.98;;;1.00;;
27201;SDS011;14717;46.924;15.474;2023-04-24T11:45:12;1.13;;;0.80;;
27201;SDS011;14717;46.924;15.474;2023-04-24T11:47:48;1.75;;;0.82;;
27201;SDS011;14717;46.924;15.474;2023-04-24T11:52:43;2.00;;;0.90;;
27201;SDS011;14717;46.924;15.474;2023-04-24T12:00:20;1.25;;;0.95;;
27201;SDS011;14717;46.924;15.474;2023-04-24T12:03:09;1.75;;;0.90;;
27201;SDS011;14717;46.924;15.474;2023-04-24T12:05:36;1.65;;;1.00;;
27201;SDS011;14717;46.924;15.474;2023-04-24T12:08:02;2.17;;;1.00;;
27201;SDS011;14717;46.924;15.474;2023-04-24T12:10:28;1.02;;;0.70;;
27201;SDS011;14717;46.924;15.474;2023-04-24T12:12:55;1.48;;;0.82;;
27201;SDS011;14717;46.924;15.474;2023-04-24T12:15:22;1.55;;;1.00;;
27201;SDS011;14717;46.924;15.474;2023-04-24T12:20:16;1.35;;;0.90;;
27201;SDS011;14717;46.924;15.474;2023-04-24T12:25:10;1.25;;;0.65;;
27201;SDS011;14717;46.924;15.474;2023-04-24T12:30:03;1.55;;;0.70;;
27201;SDS011;14717;46.924;15.474;2023-04-24T12:32:30;1.38;;;0.65;;
27201;SDS011;14717;46.924;15.474;2023-04-24T12:34:56;1.00;;;0.70;;
27201;SDS011;14717;46.924;15.474;2023-04-24T12:37:22;1.50;;;0.80;;
27201;SDS011;14717;46.924;15.474;2023-04-24T12:39:59;1.10;;;0.70;;
27201;SDS011;14717;46.924;15.474;2023-04-24T12:42:32;1.40;;;0.85;;
27201;SDS011;14717;46.924;15.474;2023-04-24T12:47:25;1.00;;;0.70;;
27201;SDS011;14717;46.924;15.474;2023-04-24T12:49:54;3.17;;;0.70;;
27201;SDS011;14717;46.924;15.474;2023-04-24T12:54:46;1.45;;;0.80;;
27201;SDS011;14717;46.924;15.474;2023-04-24T12:57:12;1.40;;;0.65;;
27201;SDS011;14717;46.924;15.474;2023-04-24T13:02:04;0.90;;;0.60;;
27201;SDS011;14717;46.924;15.474;2023-04-24T13:06:55;1.13;;;0.60;;
27201;SDS011;14717;46.924;15.474;2023-04-24T13:09:20;1.50;;;0.75;;
27201;SDS011;14717;46.924;15.474;2023-04-24T13:14:11;1.97;;;0.90;;
27201;SDS011;14717;46.924;15.474;2023-04-24T13:16:36;1.27;;;0.60;;
27201;SDS011;14717;46.924;15.474;2023-04-24T13:19:01;1.27;;;0.68;;
27201;SDS011;14717;46.924;15.474;2023-04-24T13:23:52;1.40;;;0.50;;
27201;SDS011;14717;46.924;15.474;2023-04-24T13:28:43;1.67;;;0.70;;
27201;SDS011;14717;46.924;15.474;2023-04-24T13:33:34;1.63;;;0.70;;
27201;SDS011;14717;46.924;15.474;2023-04-24T13:38:25;1.38;;;0.70;;
27201;SDS011;14717;46.924;15.474;2023-04-24T13:43:16;0.88;;;0.60;;
27201;SDS011;14717;46.924;15.474;2023-04-24T13:48:06;1.90;;;0.93;;
27201;SDS011;14717;46.924;15.474;2023-04-24T13:50:33;0.80;;;0.73;;
27201;SDS011;14717;46.924;15.474;2023-04-24T13:55:26;1.00;;;0.60;;
27201;SDS011;14717;46.924;15.474;2023-04-24T14:00:20;1.55;;;0.60;;
27201;SDS011;14717;46.924;15.474;2023-04-24T14:02:46;1.08;;;0.70;;
27201;SDS011;14717;46.924;15.474;2023-04-24T14:07:39;0.65;;;0.52;;
27201;SDS011;14717;46.924;15.474;2023-04-24T14:12:30;5.82;;;1.08;;
27201;SDS011;14717;46.924;15.474;2023-04-24T14:17:20;0.97;;;0.60;;
27201;SDS011;14717;46.924;15.474;2023-04-24T14:22:11;2.15;;;0.80;;
27201;SDS011;14717;46.924;15.474;2023-04-24T14:27:02;1.00;;;0.80;;
27201;SDS011;14717;46.924;15.474;2023-04-24T14:29:28;1.23;;;0.70;;
27201;SDS011;14717;46.924;15.474;2023-04-24T14:34:18;1.20;;;0.70;;
27201;SDS011;14717;46.924;15.474;2023-04-24T14:39:10;1.00;;;0.80;;
27201;SDS011;14717;46.924;15.474;2023-04-24T14:44:02;3.00;;;1.10;;
27201;SDS011;14717;46.924;15.474;2023-04-24T14:48:54;1.83;;;0.90;;
27201;SDS011;14717;46.924;15.474;2023-04-24T14:53:44;2.33;;;0.80;;
27201;SDS011;14717;46.924;15.474;2023-04-24T14:56:12;1.13;;;0.73;;
27201;SDS011;14717;46.924;15.474;2023-04-24T15:01:03;1.17;;;0.80;;
27201;SDS011;14717;46.924;15.474;2023-04-24T15:05:54;1.55;;;0.80;;
27201;SDS011;14717;46.924;15.474;2023-04-24T15:10:46;1.58;;;0.90;;
27201;SDS011;14717;46.924;15.474;2023-04-24T15:15:37;2.33;;;1.20;;
27201;SDS011;14717;46.924;15.474;2023-04-24T15:18:03;1.20;;;0.70;;
27201;SDS011;14717;46.924;15.474;2023-04-24T15:20:30;0.68;;;0.43;;
27201;SDS011;14717;46.924;15.474;2023-04-24T15:22:56;1.48;;;0.60;;
27201;SDS011;14717;46.924;15.474;2023-04-24T15:25:24;2.67;;;0.70;;
27201;SDS011;14717;46.924;15.474;2023-04-24T15:30:15;0.73;;;0.70;;
27201;SDS011;14717;46.924;15.474;2023-04-24T15:32:40;0.90;;;0.50;;
27201;SDS011;14717;46.924;15.474;2023-04-24T15:35:06;1.05;;;0.50;;
27201;SDS011;14717;46.924;15.474;2023-04-24T15:37:31;0.80;;;0.55;;
27201;SDS011;14717;46.924;15.474;2023-04-24T15:39:57;1.10;;;0.60;;
27201;SDS011;14717;46.924;15.474;2023-04-24T15:42:24;0.60;;;0.60;;
27201;SDS011;14717;46.924;15.474;2023-04-24T15:47:15;1.43;;;0.57;;
27201;SDS011;14717;46.924;15.474;2023-04-24T15:52:06;0.60;;;0.40;;
27201;SDS011;14717;46.924;15.474;2023-04-24T15:56:56;3.13;;;0.50;;
27201;SDS011;14717;46.924;15.474;2023-04-24T16:01:48;1.02;;;0.60;;
27201;SDS011;14717;46.924;15.474;2023-04-24T16:06:39;0.60;;;0.60;;
27201;SDS011;14717;46.924;15.474;2023-04-24T16:09:04;0.95;;;0.82;;
27201;SDS011;14717;46.924;15.474;2023-04-24T16:11:30;6.13;;;2.53;;
27201;SDS011;14717;46.924;15.474;2023-04-24T16:13:56;6.72;;;2.42;;
27201;SDS011;14717;46.924;15.474;2023-04-24T16:16:22;1.95;;;1.10;;
27201;SDS011;14717;46.924;15.474;2023-04-24T16:21:13;4.55;;;1.60;;
27201;SDS011;14717;46.924;15.474;2023-04-24T16:26:04;4.78;;;2.13;;
27201;SDS011;14717;46.924;15.474;2023-04-24T16:28:30;3.83;;;1.58;;
27201;SDS011;14717;46.924;15.474;2023-04-24T16:30:55;5.00;;;1.70;;
27201;SDS011;14717;46.924;15.474;2023-04-24T16:33:21;3.35;;;0.82;;
27201;SDS011;14717;46.924;15.474;2023-04-24T16:35:46;3.38;;;1.23;;
27201;SDS011;14717;46.924;15.474;2023-04-24T16:38:12;1.08;;;0.63;;
27201;SDS011;14717;46.924;15.474;2023-04-24T16:40:37;1.73;;;0.80;;